sensor_id;sensor_type;location;lat;lon;timestamp;temperature;humidity
19586;DHT22;9939;49.246;9.106;2023-02-18T00:00:19;11.70;99.90
19586;DHT22;9939;49.246;9.106;2023-02-18T00:02:46;11.70;99.90
19586;DHT22;9939;49.246;9.106;2023-02-18T00:05:13;11.70;99.90
19586;DHT22;9939;49.246;9.106;2023-02-18T00:07:40;11.80;99.90
19586;DHT22;9939;49.246;9.106;2023-02-18T00:10:09;11.80;99.90
19586;DHT22;9939;49.246;9.106;2023-02-18T00:12:36;11.80;99.90
19586;DHT22;9939;49.246;9.106;2023-02-18T00:15:04;11.80;99.90
19586;DHT22;9939;49.246;9.106;2023-02-18T00:17:30;11.80;99.90
19586;DHT22;9939;49.246;9.106;2023-02-18T00:19:57;11.90;99.90
19586;DHT22;9939;49.246;9.106;2023-02-18T00:22:24;11.90;99.90
19586;DHT22;9939;49.246;9.106;2023-02-18T00:24:51;11.80;99.90
19586;DHT22;9939;49.246;9.106;2023-02-18T00:27:18;11.80;99.90
19586;DHT22;9939;49.246;9.106;2023-02-18T00:29:45;11.80;99.90
19586;DHT22;9939;49.246;9.106;2023-02-18T00:32:11;11.70;99.90
19586;DHT22;9939;49.246;9.106;2023-02-18T00:34:38;11.70;99.90
19586;DHT22;9939;49.246;9.106;2023-02-18T00:37:05;11.60;99.90
19586;DHT22;9939;49.246;9.106;2023-02-18T00:39:32;11.60;99.90
19586;DHT22;9939;49.246;9.106;2023-02-18T00:41:59;11.60;99.90
19586;DHT22;9939;49.246;9.106;2023-02-18T00:44:27;11.50;99.90
19586;DHT22;9939;49.246;9.106;2023-02-18T00:46:56;11.50;99.90
19586;DHT22;9939;49.246;9.106;2023-02-18T00:49:22;11.50;99.90
19586;DHT22;9939;49.246;9.106;2023-02-18T00:51:49;11.60;99.90
19586;DHT22;9939;49.246;9.106;2023-02-18T00:54:16;11.50;99.90
19586;DHT22;9939;49.246;9.106;2023-02-18T00:56:43;11.50;99.90
19586;DHT22;9939;49.246;9.106;2023-02-18T00:59:10;11.60;99.90
19586;DHT22;9939;49.246;9.106;2023-02-18T01:01:37;11.50;99.90
19586;DHT22;9939;49.246;9.106;2023-02-18T01:04:06;11.50;99.90
19586;DHT22;9939;49.246;9.106;2023-02-18T01:06:33;11.60;99.90
19586;DHT22;9939;49.246;9.106;2023-02-18T01:09:02;11.60;99.90
19586;DHT22;9939;49.246;9.106;2023-02-18T01:11:28;11.60;99.90
19586;DHT22;9939;49.246;9.106;2023-02-18T01:13:55;11.60;99.90
19586;DHT22;9939;49.246;9.106;2023-02-18T01:16:22;11.70;99.90
19586;DHT22;9939;49.246;9.106;2023-02-18T01:18:49;11.70;99.90
19586;DHT22;9939;49.246;9.106;2023-02-18T01:21:16;11.70;99.90
19586;DHT22;9939;49.246;9.106;2023-02-18T01:23:43;11.60;99.90
19586;DHT22;9939;49.246;9.106;2023-02-18T01:26:10;11.60;99.90
19586;DHT22;9939;49.246;9.106;2023-02-18T01:28:38;11.60;99.90
19586;DHT22;9939;49.246;9.106;2023-02-18T01:31:06;11.60;99.90
19586;DHT22;9939;49.246;9.106;2023-02-18T01:33:34;11.60;99.90
19586;DHT22;9939;49.246;9.106;2023-02-18T01:36:01;11.60;99.90
19586;DHT22;9939;49.246;9.106;2023-02-18T01:38:28;11.60;99.90
19586;DHT22;9939;49.246;9.106;2023-02-18T01:40:55;11.60;99.90
19586;DHT22;9939;49.246;9.106;2023-02-18T01:43:22;11.60;99.90
19586;DHT22;9939;49.246;9.106;2023-02-18T01:45:56;11.60;99.90
19586;DHT22;9939;49.246;9.106;2023-02-18T01:51:33;11.60;99.90
19586;DHT22;9939;49.246;9.106;2023-02-18T01:53:58;11.60;99.90
19586;DHT22;9939;49.246;9.106;2023-02-18T01:58:54;11.60;99.90
19586;DHT22;9939;49.246;9.106;2023-02-18T02:01:22;11.60;99.90
19586;DHT22;9939;49.246;9.106;2023-02-18T02:03:49;11.70;99.90
19586;DHT22;9939;49.246;9.106;2023-02-18T02:06:20;11.70;99.90
19586;DHT22;9939;49.246;9.106;2023-02-18T02:08:50;11.70;99.90
19586;DHT22;9939;49.246;9.106;2023-02-18T02:22:05;11.80;99.90
19586;DHT22;9939;49.246;9.106;2023-02-18T02:27:22;11.90;99.90
19586;DHT22;9939;49.246;9.106;2023-02-18T02:35:22;11.90;99.90
19586;DHT22;9939;49.246;9.106;2023-02-18T02:37:55;11.90;99.90
19586;DHT22;9939;49.246;9.106;2023-02-18T02:43:16;11.90;99.90
19586;DHT22;9939;49.246;9.106;2023-02-18T02:45:50;11.90;99.90
19586;DHT22;9939;49.246;9.106;2023-02-18T02:51:14;11.80;99.90
19586;DHT22;9939;49.246;9.106;2023-02-18T02:53:44;11.70;99.90
19586;DHT22;9939;49.246;9.106;2023-02-18T02:56:12;11.60;99.90
19586;DHT22;9939;49.246;9.106;2023-02-18T02:58:40;11.40;99.90
19586;DHT22;9939;49.246;9.106;2023-02-18T03:03:53;11.30;99.90
19586;DHT22;9939;49.246;9.106;2023-02-18T03:11:22;11.40;99.90
19586;DHT22;9939;49.246;9.106;2023-02-18T03:13:56;11.40;99.90
19586;DHT22;9939;49.246;9.106;2023-02-18T03:19:04;11.40;99.90
19586;DHT22;9939;49.246;9.106;2023-02-18T03:21:36;11.40;99.90
19586;DHT22;9939;49.246;9.106;2023-02-18T03:24:21;11.40;99.90
19586;DHT22;9939;49.246;9.106;2023-02-18T03:26:51;11.40;99.90
19586;DHT22;9939;49.246;9.106;2023-02-18T03:29:20;11.40;99.90
19586;DHT22;9939;49.246;9.106;2023-02-18T03:31:50;11.30;99.90
19586;DHT22;9939;49.246;9.106;2023-02-18T03:34:25;11.20;99.90
19586;DHT22;9939;49.246;9.106;2023-02-18T03:36:55;11.10;99.90
19586;DHT22;9939;49.246;9.106;2023-02-18T03:39:23;11.20;99.90
19586;DHT22;9939;49.246;9.106;2023-02-18T03:41:51;11.30;99.90
19586;DHT22;9939;49.246;9.106;2023-02-18T03:44:19;11.30;99.90
19586;DHT22;9939;49.246;9.106;2023-02-18T03:46:46;11.40;99.90
19586;DHT22;9939;49.246;9.106;2023-02-18T03:49:14;11.50;99.90
19586;DHT22;9939;49.246;9.106;2023-02-18T03:51:41;11.50;99.90
19586;DHT22;9939;49.246;9.106;2023-02-18T03:54:09;11.50;99.90
19586;DHT22;9939;49.246;9.106;2023-02-18T03:56:36;11.60;99.90
19586;DHT22;9939;49.246;9.106;2023-02-18T03:59:03;11.60;99.90
19586;DHT22;9939;49.246;9.106;2023-02-18T04:01:30;11.60;99.90
19586;DHT22;9939;49.246;9.106;2023-02-18T04:03:57;11.50;99.90
19586;DHT22;9939;49.246;9.106;2023-02-18T04:06:23;11.60;99.90
19586;DHT22;9939;49.246;9.106;2023-02-18T04:08:50;11.50;99.90
19586;DHT22;9939;49.246;9.106;2023-02-18T04:11:17;11.50;99.90
19586;DHT22;9939;49.246;9.106;2023-02-18T04:13:44;11.50;99.90
19586;DHT22;9939;49.246;9.106;2023-02-18T04:16:11;11.60;99.90
19586;DHT22;9939;49.246;9.106;2023-02-18T04:18:38;11.60;99.90
19586;DHT22;9939;49.246;9.106;2023-02-18T04:21:05;11.50;99.90
19586;DHT22;9939;49.246;9.106;2023-02-18T04:23:32;11.60;99.90
19586;DHT22;9939;49.246;9.106;2023-02-18T04:25:59;11.50;99.90
19586;DHT22;9939;49.246;9.106;2023-02-18T04:28:25;11.50;99.90
19586;DHT22;9939;49.246;9.106;2023-02-18T04:30:52;11.50;99.90
19586;DHT22;9939;49.246;9.106;2023-02-18T04:33:19;11.50;99.90
19586;DHT22;9939;49.246;9.106;2023-02-18T04:35:46;11.50;99.90
19586;DHT22;9939;49.246;9.106;2023-02-18T04:38:13;11.50;99.90
19586;DHT22;9939;49.246;9.106;2023-02-18T04:40:39;11.50;99.90
19586;DHT22;9939;49.246;9.106;2023-02-18T04:43:06;11.50;99.90
19586;DHT22;9939;49.246;9.106;2023-02-18T04:45:33;11.50;99.90
19586;DHT22;9939;49.246;9.106;2023-02-18T04:48:00;11.50;99.90
19586;DHT22;9939;49.246;9.106;2023-02-18T04:50:27;11.50;99.90
19586;DHT22;9939;49.246;9.106;2023-02-18T04:52:53;11.40;99.90
19586;DHT22;9939;49.246;9.106;2023-02-18T04:55:20;11.40;99.90
19586;DHT22;9939;49.246;9.106;2023-02-18T04:57:47;11.40;99.90
19586;DHT22;9939;49.246;9.106;2023-02-18T05:00:15;11.40;99.90
19586;DHT22;9939;49.246;9.106;2023-02-18T05:02:42;11.40;99.90
19586;DHT22;9939;49.246;9.106;2023-02-18T05:05:09;11.30;99.90
19586;DHT22;9939;49.246;9.106;2023-02-18T05:07:37;11.40;99.90
19586;DHT22;9939;49.246;9.106;2023-02-18T05:10:04;11.40;99.90
19586;DHT22;9939;49.246;9.106;2023-02-18T05:12:31;11.40;99.90
19586;DHT22;9939;49.246;9.106;2023-02-18T05:14:58;11.40;99.90
19586;DHT22;9939;49.246;9.106;2023-02-18T05:17:25;11.30;99.90
19586;DHT22;9939;49.246;9.106;2023-02-18T05:19:52;11.30;99.90
19586;DHT22;9939;49.246;9.106;2023-02-18T05:22:18;11.40;99.90
19586;DHT22;9939;49.246;9.106;2023-02-18T05:24:45;11.40;99.90
19586;DHT22;9939;49.246;9.106;2023-02-18T05:27:12;11.30;99.90
19586;DHT22;9939;49.246;9.106;2023-02-18T05:29:39;11.30;99.90
19586;DHT22;9939;49.246;9.106;2023-02-18T05:32:06;11.30;99.90
19586;DHT22;9939;49.246;9.106;2023-02-18T05:34:33;11.30;99.90
19586;DHT22;9939;49.246;9.106;2023-02-18T05:37:00;11.30;99.90
19586;DHT22;9939;49.246;9.106;2023-02-18T05:39:26;11.30;99.90
19586;DHT22;9939;49.246;9.106;2023-02-18T05:41:53;11.30;99.90
19586;DHT22;9939;49.246;9.106;2023-02-18T05:44:20;11.30;99.90
19586;DHT22;9939;49.246;9.106;2023-02-18T05:46:56;11.30;99.90
19586;DHT22;9939;49.246;9.106;2023-02-18T05:49:23;11.30;99.90
19586;DHT22;9939;49.246;9.106;2023-02-18T05:51:50;11.30;99.90
19586;DHT22;9939;49.246;9.106;2023-02-18T05:54:17;11.20;99.90
19586;DHT22;9939;49.246;9.106;2023-02-18T05:56:44;11.20;99.90
19586;DHT22;9939;49.246;9.106;2023-02-18T05:59:11;11.20;99.90
19586;DHT22;9939;49.246;9.106;2023-02-18T06:01:38;11.20;99.90
19586;DHT22;9939;49.246;9.106;2023-02-18T06:04:05;11.20;99.90
19586;DHT22;9939;49.246;9.106;2023-02-18T06:06:32;11.20;99.90
19586;DHT22;9939;49.246;9.106;2023-02-18T06:08:59;11.20;99.90
19586;DHT22;9939;49.246;9.106;2023-02-18T06:11:26;11.20;99.90
19586;DHT22;9939;49.246;9.106;2023-02-18T06:13:53;11.30;99.90
19586;DHT22;9939;49.246;9.106;2023-02-18T06:16:20;11.30;99.90
19586;DHT22;9939;49.246;9.106;2023-02-18T06:18:46;11.30;99.90
19586;DHT22;9939;49.246;9.106;2023-02-18T06:21:13;11.20;99.90
19586;DHT22;9939;49.246;9.106;2023-02-18T06:23:40;11.30;99.90
19586;DHT22;9939;49.246;9.106;2023-02-18T06:26:07;11.30;99.90
19586;DHT22;9939;49.246;9.106;2023-02-18T06:28:34;11.30;99.90
19586;DHT22;9939;49.246;9.106;2023-02-18T06:31:01;11.20;99.90
19586;DHT22;9939;49.246;9.106;2023-02-18T06:33:28;11.30;99.90
19586;DHT22;9939;49.246;9.106;2023-02-18T06:35:55;11.20;99.90
19586;DHT22;9939;49.246;9.106;2023-02-18T06:38:22;11.20;99.90
19586;DHT22;9939;49.246;9.106;2023-02-18T06:40:49;11.20;99.90
19586;DHT22;9939;49.246;9.106;2023-02-18T06:43:16;11.20;99.90
19586;DHT22;9939;49.246;9.106;2023-02-18T06:45:43;11.20;99.90
19586;DHT22;9939;49.246;9.106;2023-02-18T06:48:10;11.20;99.90
19586;DHT22;9939;49.246;9.106;2023-02-18T06:50:37;11.20;99.90
19586;DHT22;9939;49.246;9.106;2023-02-18T06:53:04;11.30;99.90
19586;DHT22;9939;49.246;9.106;2023-02-18T06:55:30;11.30;99.90
19586;DHT22;9939;49.246;9.106;2023-02-18T06:57:57;11.30;99.90
19586;DHT22;9939;49.246;9.106;2023-02-18T07:00:24;11.40;99.90
19586;DHT22;9939;49.246;9.106;2023-02-18T07:02:51;11.30;99.90
19586;DHT22;9939;49.246;9.106;2023-02-18T07:05:18;11.40;99.90
19586;DHT22;9939;49.246;9.106;2023-02-18T07:07:45;11.40;99.90
19586;DHT22;9939;49.246;9.106;2023-02-18T07:10:12;11.40;99.90
19586;DHT22;9939;49.246;9.106;2023-02-18T07:12:38;11.40;99.90
19586;DHT22;9939;49.246;9.106;2023-02-18T07:15:05;11.40;99.90
19586;DHT22;9939;49.246;9.106;2023-02-18T07:17:32;11.40;99.90
19586;DHT22;9939;49.246;9.106;2023-02-18T07:19:59;11.40;99.90
19586;DHT22;9939;49.246;9.106;2023-02-18T07:22:26;11.50;99.90
19586;DHT22;9939;49.246;9.106;2023-02-18T07:24:53;11.50;99.90
19586;DHT22;9939;49.246;9.106;2023-02-18T07:27:20;11.50;99.90
19586;DHT22;9939;49.246;9.106;2023-02-18T07:29:47;11.50;99.90
19586;DHT22;9939;49.246;9.106;2023-02-18T07:32:15;11.50;99.90
19586;DHT22;9939;49.246;9.106;2023-02-18T07:34:41;11.60;99.90
19586;DHT22;9939;49.246;9.106;2023-02-18T07:37:08;11.60;99.90
19586;DHT22;9939;49.246;9.106;2023-02-18T07:39:35;11.60;99.90
19586;DHT22;9939;49.246;9.106;2023-02-18T07:42:02;11.60;99.90
19586;DHT22;9939;49.246;9.106;2023-02-18T07:44:31;11.60;99.90
19586;DHT22;9939;49.246;9.106;2023-02-18T07:46:58;11.60;99.90
19586;DHT22;9939;49.246;9.106;2023-02-18T07:49:25;11.60;99.90
19586;DHT22;9939;49.246;9.106;2023-02-18T07:51:52;11.60;99.90
19586;DHT22;9939;49.246;9.106;2023-02-18T07:54:18;11.60;99.90
19586;DHT22;9939;49.246;9.106;2023-02-18T07:56:46;11.60;99.90
19586;DHT22;9939;49.246;9.106;2023-02-18T07:59:13;11.60;99.90
19586;DHT22;9939;49.246;9.106;2023-02-18T08:01:40;11.70;99.90
19586;DHT22;9939;49.246;9.106;2023-02-18T08:04:09;11.80;99.90
19586;DHT22;9939;49.246;9.106;2023-02-18T08:06:37;11.80;99.90
19586;DHT22;9939;49.246;9.106;2023-02-18T08:09:05;11.80;99.90
19586;DHT22;9939;49.246;9.106;2023-02-18T08:11:32;11.80;99.90
19586;DHT22;9939;49.246;9.106;2023-02-18T08:13:59;11.90;99.90
19586;DHT22;9939;49.246;9.106;2023-02-18T08:16:26;11.90;99.90
19586;DHT22;9939;49.246;9.106;2023-02-18T08:18:53;11.90;99.90
19586;DHT22;9939;49.246;9.106;2023-02-18T08:21:21;11.90;99.90
19586;DHT22;9939;49.246;9.106;2023-02-18T08:23:48;11.90;99.90
19586;DHT22;9939;49.246;9.106;2023-02-18T08:26:16;12.00;99.90
19586;DHT22;9939;49.246;9.106;2023-02-18T08:28:43;12.00;99.90
19586;DHT22;9939;49.246;9.106;2023-02-18T08:31:15;12.10;99.90
19586;DHT22;9939;49.246;9.106;2023-02-18T08:33:43;12.10;99.90
19586;DHT22;9939;49.246;9.106;2023-02-18T08:36:09;12.20;99.90
19586;DHT22;9939;49.246;9.106;2023-02-18T08:38:36;12.20;99.90
19586;DHT22;9939;49.246;9.106;2023-02-18T08:41:04;12.20;99.90
19586;DHT22;9939;49.246;9.106;2023-02-18T08:43:32;12.20;99.90
19586;DHT22;9939;49.246;9.106;2023-02-18T08:45:59;12.20;99.90
19586;DHT22;9939;49.246;9.106;2023-02-18T08:48:26;12.20;99.90
19586;DHT22;9939;49.246;9.106;2023-02-18T08:50:53;12.20;99.90
19586;DHT22;9939;49.246;9.106;2023-02-18T08:53:20;12.20;99.90
19586;DHT22;9939;49.246;9.106;2023-02-18T08:55:47;12.30;99.90
19586;DHT22;9939;49.246;9.106;2023-02-18T08:58:14;12.40;99.90
19586;DHT22;9939;49.246;9.106;2023-02-18T09:00:41;12.40;99.90
19586;DHT22;9939;49.246;9.106;2023-02-18T09:03:11;12.50;99.90
19586;DHT22;9939;49.246;9.106;2023-02-18T09:05:38;12.60;99.90
19586;DHT22;9939;49.246;9.106;2023-02-18T09:08:06;12.70;99.90
19586;DHT22;9939;49.246;9.106;2023-02-18T09:10:33;12.70;99.90
19586;DHT22;9939;49.246;9.106;2023-02-18T09:13:00;12.80;99.90
19586;DHT22;9939;49.246;9.106;2023-02-18T09:15:26;12.80;99.90
19586;DHT22;9939;49.246;9.106;2023-02-18T09:17:53;12.70;99.90
19586;DHT22;9939;49.246;9.106;2023-02-18T09:20:20;12.80;99.90
19586;DHT22;9939;49.246;9.106;2023-02-18T09:22:47;12.80;99.90
19586;DHT22;9939;49.246;9.106;2023-02-18T09:25:14;12.90;99.90
19586;DHT22;9939;49.246;9.106;2023-02-18T09:27:40;12.90;99.90
19586;DHT22;9939;49.246;9.106;2023-02-18T09:30:07;12.80;99.90
19586;DHT22;9939;49.246;9.106;2023-02-18T09:32:34;12.90;99.90
19586;DHT22;9939;49.246;9.106;2023-02-18T09:35:04;12.90;99.90
19586;DHT22;9939;49.246;9.106;2023-02-18T09:37:31;12.90;99.90
19586;DHT22;9939;49.246;9.106;2023-02-18T09:39:58;12.90;99.90
19586;DHT22;9939;49.246;9.106;2023-02-18T09:42:31;12.90;99.90
19586;DHT22;9939;49.246;9.106;2023-02-18T09:45:00;12.90;99.90
19586;DHT22;9939;49.246;9.106;2023-02-18T09:47:30;12.90;99.90
19586;DHT22;9939;49.246;9.106;2023-02-18T09:49:59;12.90;99.90
19586;DHT22;9939;49.246;9.106;2023-02-18T09:52:33;12.90;99.90
19586;DHT22;9939;49.246;9.106;2023-02-18T09:57:44;12.80;99.90
19586;DHT22;9939;49.246;9.106;2023-02-18T10:00:13;12.90;99.90
19586;DHT22;9939;49.246;9.106;2023-02-18T10:02:49;12.90;99.90
19586;DHT22;9939;49.246;9.106;2023-02-18T10:05:18;12.80;99.90
19586;DHT22;9939;49.246;9.106;2023-02-18T10:07:46;12.80;99.90
19586;DHT22;9939;49.246;9.106;2023-02-18T10:10:20;12.90;99.90
19586;DHT22;9939;49.246;9.106;2023-02-18T10:12:48;12.90;99.90
19586;DHT22;9939;49.246;9.106;2023-02-18T10:15:22;12.90;99.90
19586;DHT22;9939;49.246;9.106;2023-02-18T10:17:49;12.90;99.90
19586;DHT22;9939;49.246;9.106;2023-02-18T10:20:19;13.00;99.90
19586;DHT22;9939;49.246;9.106;2023-02-18T10:22:49;13.10;99.90
19586;DHT22;9939;49.246;9.106;2023-02-18T10:25:17;13.10;99.90
19586;DHT22;9939;49.246;9.106;2023-02-18T10:27:44;13.20;99.90
19586;DHT22;9939;49.246;9.106;2023-02-18T10:30:20;13.30;99.90
19586;DHT22;9939;49.246;9.106;2023-02-18T10:32:47;13.40;99.90
19586;DHT22;9939;49.246;9.106;2023-02-18T10:48:15;13.50;99.90
19586;DHT22;9939;49.246;9.106;2023-02-18T10:50:44;13.60;99.90
19586;DHT22;9939;49.246;9.106;2023-02-18T10:53:16;13.60;99.90
19586;DHT22;9939;49.246;9.106;2023-02-18T10:55:45;13.60;99.90
19586;DHT22;9939;49.246;9.106;2023-02-18T10:58:46;13.50;99.90
19586;DHT22;9939;49.246;9.106;2023-02-18T11:01:06;13.50;99.90
19586;DHT22;9939;49.246;9.106;2023-02-18T11:03:43;13.40;99.90
19586;DHT22;9939;49.246;9.106;2023-02-18T11:08:49;13.60;99.90
19586;DHT22;9939;49.246;9.106;2023-02-18T11:11:18;13.70;99.90
19586;DHT22;9939;49.246;9.106;2023-02-18T11:13:51;13.70;99.90
19586;DHT22;9939;49.246;9.106;2023-02-18T11:16:20;13.70;99.90
19586;DHT22;9939;49.246;9.106;2023-02-18T11:18:47;13.50;99.90
19586;DHT22;9939;49.246;9.106;2023-02-18T11:21:25;13.50;99.90
19586;DHT22;9939;49.246;9.106;2023-02-18T11:23:55;13.40;99.90
19586;DHT22;9939;49.246;9.106;2023-02-18T11:26:40;13.20;99.90
19586;DHT22;9939;49.246;9.106;2023-02-18T11:29:21;13.10;99.90
19586;DHT22;9939;49.246;9.106;2023-02-18T11:31:49;13.30;99.90
19586;DHT22;9939;49.246;9.106;2023-02-18T11:34:21;13.80;99.90
19586;DHT22;9939;49.246;9.106;2023-02-18T11:36:49;13.70;99.90
19586;DHT22;9939;49.246;9.106;2023-02-18T11:42:03;13.50;99.90
19586;DHT22;9939;49.246;9.106;2023-02-18T11:49:41;13.40;99.90
19586;DHT22;9939;49.246;9.106;2023-02-18T11:54:41;13.40;99.90
19586;DHT22;9939;49.246;9.106;2023-02-18T11:57:09;13.40;99.90
19586;DHT22;9939;49.246;9.106;2023-02-18T11:59:38;13.40;99.90
19586;DHT22;9939;49.246;9.106;2023-02-18T12:07:14;13.50;99.90
19586;DHT22;9939;49.246;9.106;2023-02-18T12:09:46;13.50;99.90
19586;DHT22;9939;49.246;9.106;2023-02-18T12:12:15;13.60;99.90
19586;DHT22;9939;49.246;9.106;2023-02-18T12:14:43;13.60;99.90
19586;DHT22;9939;49.246;9.106;2023-02-18T12:22:18;13.70;99.90
19586;DHT22;9939;49.246;9.106;2023-02-18T12:27:23;13.80;99.90
19586;DHT22;9939;49.246;9.106;2023-02-18T12:42:54;14.00;99.90
19586;DHT22;9939;49.246;9.106;2023-02-18T12:52:59;13.80;99.90
19586;DHT22;9939;49.246;9.106;2023-02-18T12:55:36;13.80;99.90
19586;DHT22;9939;49.246;9.106;2023-02-18T13:00:44;15.40;99.90
19586;DHT22;9939;49.246;9.106;2023-02-18T13:06:21;15.00;99.90
19586;DHT22;9939;49.246;9.106;2023-02-18T13:08:58;15.20;99.90
19586;DHT22;9939;49.246;9.106;2023-02-18T13:14:12;16.70;99.90
19586;DHT22;9939;49.246;9.106;2023-02-18T13:16:41;15.50;99.90
19586;DHT22;9939;49.246;9.106;2023-02-18T13:19:26;15.10;99.90
19586;DHT22;9939;49.246;9.106;2023-02-18T13:21:56;14.90;99.90
19586;DHT22;9939;49.246;9.106;2023-02-18T13:27:07;14.60;99.90
19586;DHT22;9939;49.246;9.106;2023-02-18T13:29:47;14.40;99.90
19586;DHT22;9939;49.246;9.106;2023-02-18T13:34:52;14.70;99.90
19586;DHT22;9939;49.246;9.106;2023-02-18T13:37:25;16.60;99.90
19586;DHT22;9939;49.246;9.106;2023-02-18T13:39:54;17.10;99.90
19586;DHT22;9939;49.246;9.106;2023-02-18T13:42:23;16.80;99.90
19586;DHT22;9939;49.246;9.106;2023-02-18T13:55:45;15.30;99.90
19586;DHT22;9939;49.246;9.106;2023-02-18T13:58:18;15.40;99.90
19586;DHT22;9939;49.246;9.106;2023-02-18T14:00:48;15.50;99.90
19586;DHT22;9939;49.246;9.106;2023-02-18T14:03:59;15.30;99.90
19586;DHT22;9939;49.246;9.106;2023-02-18T14:06:39;15.50;99.90
19586;DHT22;9939;49.246;9.106;2023-02-18T14:11:52;15.30;99.90
19586;DHT22;9939;49.246;9.106;2023-02-18T14:17:12;15.30;99.90
19586;DHT22;9939;49.246;9.106;2023-02-18T14:19:39;15.60;99.90
19586;DHT22;9939;49.246;9.106;2023-02-18T14:25:01;16.20;99.90
19586;DHT22;9939;49.246;9.106;2023-02-18T14:27:28;15.80;99.90
19586;DHT22;9939;49.246;9.106;2023-02-18T14:29:55;15.60;99.90
19586;DHT22;9939;49.246;9.106;2023-02-18T14:32:28;15.20;99.90
19586;DHT22;9939;49.246;9.106;2023-02-18T14:43:06;14.60;99.90
19586;DHT22;9939;49.246;9.106;2023-02-18T14:45:39;14.50;99.90
19586;DHT22;9939;49.246;9.106;2023-02-18T14:50:57;14.00;99.90
19586;DHT22;9939;49.246;9.106;2023-02-18T14:53:25;13.90;99.90
19586;DHT22;9939;49.246;9.106;2023-02-18T14:55:57;13.90;99.90
19586;DHT22;9939;49.246;9.106;2023-02-18T14:58:27;13.70;99.90
19586;DHT22;9939;49.246;9.106;2023-02-18T15:00:55;13.70;99.90
19586;DHT22;9939;49.246;9.106;2023-02-18T15:03:21;13.60;99.90
19586;DHT22;9939;49.246;9.106;2023-02-18T15:05:49;13.60;99.90
19586;DHT22;9939;49.246;9.106;2023-02-18T15:08:20;13.40;99.90
19586;DHT22;9939;49.246;9.106;2023-02-18T15:10:51;13.40;99.90
19586;DHT22;9939;49.246;9.106;2023-02-18T15:16:02;13.20;99.90
19586;DHT22;9939;49.246;9.106;2023-02-18T15:18:37;13.20;99.90
19586;DHT22;9939;49.246;9.106;2023-02-18T15:21:05;13.10;99.90
19586;DHT22;9939;49.246;9.106;2023-02-18T15:23:34;13.10;99.90
19586;DHT22;9939;49.246;9.106;2023-02-18T15:26:01;13.10;99.90
19586;DHT22;9939;49.246;9.106;2023-02-18T15:28:32;13.10;99.90
19586;DHT22;9939;49.246;9.106;2023-02-18T15:30:59;13.00;99.90
19586;DHT22;9939;49.246;9.106;2023-02-18T15:33:27;13.00;99.90
19586;DHT22;9939;49.246;9.106;2023-02-18T15:36:00;13.00;99.90
19586;DHT22;9939;49.246;9.106;2023-02-18T15:38:27;12.80;99.90
19586;DHT22;9939;49.246;9.106;2023-02-18T15:40:54;12.80;99.90
19586;DHT22;9939;49.246;9.106;2023-02-18T15:43:22;12.70;99.90
19586;DHT22;9939;49.246;9.106;2023-02-18T15:45:50;12.70;99.90
19586;DHT22;9939;49.246;9.106;2023-02-18T15:50:56;12.50;99.90
19586;DHT22;9939;49.246;9.106;2023-02-18T15:53:35;12.50;99.90
19586;DHT22;9939;49.246;9.106;2023-02-18T15:56:14;12.40;99.90
19586;DHT22;9939;49.246;9.106;2023-02-18T15:58:43;12.30;99.90
19586;DHT22;9939;49.246;9.106;2023-02-18T16:01:23;12.30;99.90
19586;DHT22;9939;49.246;9.106;2023-02-18T16:03:51;12.20;99.90
19586;DHT22;9939;49.246;9.106;2023-02-18T16:06:21;12.20;99.90
19586;DHT22;9939;49.246;9.106;2023-02-18T16:09:01;12.20;99.90
19586;DHT22;9939;49.246;9.106;2023-02-18T16:11:30;12.10;99.90
19586;DHT22;9939;49.246;9.106;2023-02-18T16:13:58;12.10;99.90
19586;DHT22;9939;49.246;9.106;2023-02-18T16:16:32;12.00;99.90
19586;DHT22;9939;49.246;9.106;2023-02-18T16:19:00;12.10;99.90
19586;DHT22;9939;49.246;9.106;2023-02-18T16:21:37;12.00;99.90
19586;DHT22;9939;49.246;9.106;2023-02-18T16:26:58;11.90;99.90
19586;DHT22;9939;49.246;9.106;2023-02-18T16:29:33;12.00;99.90
19586;DHT22;9939;49.246;9.106;2023-02-18T16:32:00;11.90;99.90
19586;DHT22;9939;49.246;9.106;2023-02-18T16:34:27;11.70;99.90
19586;DHT22;9939;49.246;9.106;2023-02-18T16:36:54;11.40;99.90
19586;DHT22;9939;49.246;9.106;2023-02-18T16:39:40;11.20;99.90
19586;DHT22;9939;49.246;9.106;2023-02-18T16:42:10;11.10;99.90
19586;DHT22;9939;49.246;9.106;2023-02-18T16:44:38;11.00;99.90
19586;DHT22;9939;49.246;9.106;2023-02-18T16:47:05;10.80;99.90
19586;DHT22;9939;49.246;9.106;2023-02-18T16:49:32;10.70;99.90
19586;DHT22;9939;49.246;9.106;2023-02-18T16:52:00;10.70;99.90
19586;DHT22;9939;49.246;9.106;2023-02-18T16:54:31;10.70;99.90
19586;DHT22;9939;49.246;9.106;2023-02-18T16:56:58;10.70;99.90
19586;DHT22;9939;49.246;9.106;2023-02-18T16:59:24;10.60;99.90
19586;DHT22;9939;49.246;9.106;2023-02-18T17:01:51;10.60;99.90
19586;DHT22;9939;49.246;9.106;2023-02-18T17:04:18;10.50;99.90
19586;DHT22;9939;49.246;9.106;2023-02-18T17:06:45;10.60;99.90
19586;DHT22;9939;49.246;9.106;2023-02-18T17:09:19;10.60;99.90
19586;DHT22;9939;49.246;9.106;2023-02-18T17:11:49;10.50;99.90
19586;DHT22;9939;49.246;9.106;2023-02-18T17:14:17;10.50;99.90
19586;DHT22;9939;49.246;9.106;2023-02-18T17:16:44;10.60;99.90
19586;DHT22;9939;49.246;9.106;2023-02-18T17:19:11;10.70;99.90
19586;DHT22;9939;49.246;9.106;2023-02-18T17:21:38;10.80;99.90
19586;DHT22;9939;49.246;9.106;2023-02-18T17:24:05;10.90;99.90
19586;DHT22;9939;49.246;9.106;2023-02-18T17:26:32;10.90;99.90
19586;DHT22;9939;49.246;9.106;2023-02-18T17:28:59;10.90;99.90
19586;DHT22;9939;49.246;9.106;2023-02-18T17:31:27;10.80;99.90
19586;DHT22;9939;49.246;9.106;2023-02-18T17:33:55;10.90;99.90
19586;DHT22;9939;49.246;9.106;2023-02-18T17:36:22;10.90;99.90
19586;DHT22;9939;49.246;9.106;2023-02-18T17:38:49;11.00;99.90
19586;DHT22;9939;49.246;9.106;2023-02-18T17:41:16;11.00;99.90
19586;DHT22;9939;49.246;9.106;2023-02-18T17:43:43;11.00;99.90
19586;DHT22;9939;49.246;9.106;2023-02-18T17:46:11;11.00;99.90
19586;DHT22;9939;49.246;9.106;2023-02-18T17:48:39;11.00;99.90
19586;DHT22;9939;49.246;9.106;2023-02-18T17:51:06;11.00;99.90
19586;DHT22;9939;49.246;9.106;2023-02-18T17:53:33;11.00;99.90
19586;DHT22;9939;49.246;9.106;2023-02-18T17:56:00;11.10;99.90
19586;DHT22;9939;49.246;9.106;2023-02-18T17:58:27;11.00;99.90
19586;DHT22;9939;49.246;9.106;2023-02-18T18:00:55;10.90;99.90
19586;DHT22;9939;49.246;9.106;2023-02-18T18:03:22;10.90;99.90
19586;DHT22;9939;49.246;9.106;2023-02-18T18:05:50;11.00;99.90
19586;DHT22;9939;49.246;9.106;2023-02-18T18:08:17;11.00;99.90
19586;DHT22;9939;49.246;9.106;2023-02-18T18:10:54;11.00;99.90
19586;DHT22;9939;49.246;9.106;2023-02-18T18:13:24;11.00;99.90
19586;DHT22;9939;49.246;9.106;2023-02-18T18:15:51;11.00;99.90
19586;DHT22;9939;49.246;9.106;2023-02-18T18:18:18;11.00;99.90
19586;DHT22;9939;49.246;9.106;2023-02-18T18:20:53;11.00;99.90
19586;DHT22;9939;49.246;9.106;2023-02-18T18:23:20;10.90;99.90
19586;DHT22;9939;49.246;9.106;2023-02-18T18:25:54;10.80;99.90
19586;DHT22;9939;49.246;9.106;2023-02-18T18:28:22;10.80;99.90